Time;durP1;ratioP1;P1;durP2;ratioP2;P2;SDS_P1;SDS_P2;PMS_P1;PMS_P2;Temp;Humidity;BMP_temperature;BMP_pressure;BME280_temperature;BME280_humidity;BME280_pressure;Samples;Min_cycle;Max_cycle;Signal;HPM_P1;HPM_P2
2021/12/20 00:01:46;;;;;;;22.40;7.32;;;9.50;99.90;;;;;;5077227;28;20036;-67
2021/12/20 00:04:12;;;;;;;17.90;7.13;;;9.50;99.90;;;;;;5076731;28;20169;-67
2021/12/20 00:06:38;;;;;;;16.52;7.97;;;9.50;99.90;;;;;;5077252;28;20037;-66
2021/12/20 00:09:05;;;;;;;15.88;7.20;;;9.40;99.90;;;;;;5075942;28;20037;-67
2021/12/20 00:11:31;;;;;;;20.58;7.90;;;9.40;99.90;;;;;;5077165;28;20392;-64
2021/12/20 00:13:56;;;;;;;14.98;6.88;;;9.40;99.90;;;;;;5076675;28;20109;-67
2021/12/20 00:16:22;;;;;;;18.95;7.57;;;9.40;99.90;;;;;;5076637;28;20043;-66
2021/12/20 00:18:48;;;;;;;18.92;7.95;;;9.40;99.90;;;;;;5076684;28;20460;-65
2021/12/20 00:21:14;;;;;;;21.08;8.68;;;9.40;99.90;;;;;;5076663;28;20021;-66
2021/12/20 00:23:40;;;;;;;14.68;7.25;;;9.40;99.90;;;;;;5076601;28;20033;-66
2021/12/20 00:26:08;;;;;;;22.15;8.55;;;9.30;99.90;;;;;;5059136;28;20036;-66
2021/12/20 00:28:35;;;;;;;21.52;8.27;;;9.30;99.90;;;;;;5075860;28;20037;-66
2021/12/20 00:31:01;;;;;;;17.48;8.52;;;9.30;99.90;;;;;;5075831;28;20043;-66
2021/12/20 00:33:33;;;;;;;20.70;9.52;;;9.30;99.90;;;;;;5076356;28;20037;-65
2021/12/20 00:36:00;;;;;;;17.37;8.60;;;9.40;99.90;;;;;;5076539;28;20040;-66
2021/12/20 00:41:10;;;;;;;19.55;9.80;;;9.20;99.90;;;;;;5076553;28;20052;-66
2021/12/20 00:43:36;;;;;;;18.70;9.82;;;9.30;99.90;;;;;;5075835;28;20399;-65
2021/12/20 00:46:02;;;;;;;21.13;9.75;;;9.30;99.90;;;;;;5076388;28;20430;-66
2021/12/20 00:48:28;;;;;;;18.73;9.95;;;9.30;99.90;;;;;;5076421;28;20032;-66
2021/12/20 00:50:54;;;;;;;17.95;10.00;;;9.20;99.90;;;;;;5076326;28;20036;-66
2021/12/20 00:53:19;;;;;;;18.67;9.30;;;9.20;99.90;;;;;;5076343;28;20457;-66
2021/12/20 00:55:45;;;;;;;20.92;9.40;;;9.20;99.90;;;;;;5076375;28;20048;-66
2021/12/20 00:58:11;;;;;;;14.52;9.27;;;9.20;99.90;;;;;;5075506;28;20031;-66
2021/12/20 01:00:41;;;;;;;19.80;8.70;;;9.20;99.90;;;;;;5076283;28;20032;-66
2021/12/20 01:03:08;;;;;;;19.70;8.82;;;9.20;99.90;;;;;;5076245;28;20025;-66
2021/12/20 01:05:36;;;;;;;16.92;8.75;;;9.10;99.90;;;;;;5076222;28;20106;-66
2021/12/20 01:08:04;;;;;;;13.85;8.20;;;9.20;99.90;;;;;;5076205;28;20029;-66
2021/12/20 01:10:32;;;;;;;15.93;7.63;;;9.20;99.90;;;;;;5076658;28;20111;-66
2021/12/20 01:13:01;;;;;;;13.40;6.85;;;9.20;99.90;;;;;;5079792;28;20064;-66
2021/12/20 01:15:35;;;;;;;14.50;6.45;;;9.10;99.90;;;;;;5079564;28;20054;-66
2021/12/20 01:18:03;;;;;;;11.02;6.45;;;9.20;99.90;;;;;;5079668;28;20028;-66
2021/12/20 01:20:29;;;;;;;13.50;6.68;;;9.20;99.90;;;;;;5079846;28;20032;-66
2021/12/20 01:22:55;;;;;;;13.05;6.53;;;9.20;99.90;;;;;;5079588;28;20392;-66
2021/12/20 01:25:22;;;;;;;14.15;6.50;;;9.20;99.90;;;;;;5079765;28;20289;-66
2021/12/20 01:27:48;;;;;;;14.63;6.32;;;9.20;99.90;;;;;;5079833;28;20505;-66
2021/12/20 01:30:16;;;;;;;14.95;6.10;;;9.20;99.90;;;;;;5079489;28;20035;-66
2021/12/20 01:32:43;;;;;;;10.52;5.95;;;9.30;99.90;;;;;;5079363;28;20028;-66
2021/12/20 01:35:10;;;;;;;9.52;5.75;;;9.30;99.90;;;;;;5079132;28;20053;-66
2021/12/20 01:37:35;;;;;;;10.52;5.70;;;9.20;99.90;;;;;;5079226;28;20032;-66
2021/12/20 01:40:03;;;;;;;11.23;5.65;;;9.20;99.90;;;;;;5078449;28;20032;-66
2021/12/20 01:42:32;;;;;;;12.43;6.13;;;9.20;99.90;;;;;;5079231;28;20047;-66
2021/12/20 01:44:58;;;;;;;14.52;6.53;;;9.10;99.90;;;;;;5079209;28;20094;-66
2021/12/20 01:47:32;;;;;;;12.32;6.20;;;9.20;99.90;;;;;;5079185;28;20024;-65
2021/12/20 01:52:29;;;;;;;9.85;6.05;;;9.10;99.90;;;;;;5079057;28;20148;-66
2021/12/20 01:54:55;;;;;;;13.23;6.40;;;9.20;99.90;;;;;;5078950;28;20036;-65
2021/12/20 01:57:22;;;;;;;10.60;6.35;;;9.20;99.90;;;;;;5079176;28;20299;-65
2021/12/20 01:59:48;;;;;;;11.93;6.72;;;9.20;99.90;;;;;;5078249;28;20111;-66
2021/12/20 02:02:14;;;;;;;12.25;7.15;;;9.10;99.90;;;;;;5079627;28;20439;-66
2021/12/20 02:04:49;;;;;;;18.13;5.90;;;9.10;99.90;;;;;;5078050;28;20029;-66
2021/12/20 02:10:00;;;;;;;15.05;6.97;;;9.00;99.90;;;;;;5078712;28;20032;-66
2021/12/20 02:12:26;;;;;;;11.02;6.45;;;9.00;99.90;;;;;;5078656;28;20032;-65
2021/12/20 02:14:52;;;;;;;14.30;6.38;;;9.00;99.90;;;;;;5078514;28;20047;-66
2021/12/20 02:17:17;;;;;;;12.27;6.32;;;9.00;99.90;;;;;;5078559;28;20028;-66
2021/12/20 02:19:43;;;;;;;10.88;6.32;;;9.00;99.90;;;;;;5078549;28;20107;-66
2021/12/20 02:22:09;;;;;;;12.23;6.60;;;9.00;99.90;;;;;;5078034;28;20039;-65
2021/12/20 02:24:35;;;;;;;9.70;5.80;;;9.00;99.90;;;;;;5077626;28;20373;-66
2021/12/20 02:27:01;;;;;;;11.70;6.75;;;9.00;99.90;;;;;;5078887;28;20261;-66
2021/12/20 02:29:43;;;;;;;11.93;6.78;;;9.00;99.90;;;;;;5078795;28;20028;-66
2021/12/20 02:37:38;;;;;;;11.02;6.07;;;8.90;99.90;;;;;;5077527;28;20082;-66
2021/12/20 02:40:04;;;;;;;10.10;5.68;;;8.90;99.90;;;;;;5077239;28;20354;-66
2021/12/20 02:42:39;;;;;;;13.60;5.53;;;8.90;99.90;;;;;;5078465;28;20376;-66
2021/12/20 02:45:14;;;;;;;12.68;5.03;;;8.90;99.90;;;;;;5077972;28;20391;-66
2021/12/20 02:47:45;;;;;;;7.97;4.10;;;8.80;99.90;;;;;;5077961;28;20056;-66
2021/12/20 02:50:13;;;;;;;8.57;3.63;;;8.90;99.90;;;;;;5077863;28;20036;-65
2021/12/20 02:52:40;;;;;;;9.27;3.75;;;8.80;99.90;;;;;;5077000;28;20400;-66
2021/12/20 02:55:08;;;;;;;10.23;3.80;;;8.90;99.90;;;;;;5078194;28;20031;-66
2021/12/20 02:57:38;;;;;;;9.10;3.67;;;8.90;99.90;;;;;;5078249;28;20032;-66
2021/12/20 03:00:09;;;;;;;8.30;3.63;;;8.90;99.90;;;;;;5077657;28;20032;-66
2021/12/20 03:02:35;;;;;;;7.60;3.22;;;9.00;99.90;;;;;;5078079;28;20062;-66
2021/12/20 03:05:02;;;;;;;6.07;2.70;;;9.00;99.90;;;;;;5077573;28;20117;-66
2021/12/20 03:07:28;;;;;;;9.18;2.45;;;9.10;99.90;;;;;;5077933;28;20116;-66
2021/12/20 03:10:01;;;;;;;6.85;2.50;;;8.90;99.90;;;;;;5077520;28;20483;-66
2021/12/20 03:12:30;;;;;;;9.40;2.17;;;8.80;99.90;;;;;;5077422;28;20025;-66
2021/12/20 03:15:02;;;;;;;6.88;1.52;;;8.80;99.90;;;;;;5077308;28;20021;-66
2021/12/20 03:17:28;;;;;;;8.93;1.90;;;8.80;99.90;;;;;;5077373;28;20047;-66
2021/12/20 03:19:54;;;;;;;12.15;1.80;;;8.80;99.90;;;;;;5077377;28;20045;-65
2021/12/20 03:22:20;;;;;;;9.50;1.98;;;8.80;99.90;;;;;;5076517;28;20036;-65
2021/12/20 03:24:47;;;;;;;6.95;1.65;;;8.80;99.90;;;;;;5077313;28;20399;-66
2021/12/20 03:27:13;;;;;;;7.45;1.55;;;8.80;99.90;;;;;;5077206;28;20119;-65
2021/12/20 03:29:38;;;;;;;8.57;1.40;;;8.90;99.90;;;;;;5077175;28;20337;-65
2021/12/20 03:32:04;;;;;;;7.68;1.67;;;8.80;99.90;;;;;;5077770;28;20161;-66
2021/12/20 03:34:30;;;;;;;11.13;1.63;;;8.90;99.90;;;;;;5075525;28;20052;-66
2021/12/20 03:36:56;;;;;;;12.50;1.67;;;8.80;99.90;;;;;;5077061;28;20127;-66
2021/12/20 03:39:22;;;;;;;7.55;1.35;;;8.70;99.90;;;;;;5077405;28;20037;-66
2021/12/20 03:41:48;;;;;;;9.90;1.52;;;8.80;99.90;;;;;;5077653;28;20047;-65
2021/12/20 03:44:14;;;;;;;8.13;1.77;;;8.70;99.90;;;;;;5076174;28;20020;-65
2021/12/20 03:46:40;;;;;;;8.02;1.60;;;8.70;99.90;;;;;;5077029;28;20046;-65
2021/12/20 03:49:07;;;;;;;11.98;1.75;;;8.60;99.90;;;;;;5077090;28;20036;-65
2021/12/20 03:51:33;;;;;;;11.10;1.77;;;8.70;99.90;;;;;;5077022;28;20513;-65
2021/12/20 03:53:59;;;;;;;10.35;1.85;;;8.80;99.90;;;;;;5076968;28;20047;-65
2021/12/20 03:56:25;;;;;;;9.35;1.85;;;8.80;99.90;;;;;;5076880;28;20028;-65
2021/12/20 03:58:51;;;;;;;13.15;2.13;;;8.70;99.90;;;;;;5076868;28;20032;-65
2021/12/20 04:01:17;;;;;;;11.45;2.10;;;8.70;99.90;;;;;;5076836;28;20347;-65
2021/12/20 04:03:43;;;;;;;10.38;1.95;;;8.40;99.90;;;;;;5076961;28;20090;-65
2021/12/20 04:06:12;;;;;;;9.80;2.00;;;8.50;99.90;;;;;;5076144;28;20041;-65
2021/12/20 04:08:39;;;;;;;14.65;2.05;;;8.70;99.90;;;;;;5076764;28;20083;-65
2021/12/20 04:11:05;;;;;;;12.77;2.20;;;8.70;99.90;;;;;;5076756;28;20047;-65
2021/12/20 04:13:32;;;;;;;11.82;2.28;;;8.70;99.90;;;;;;5076066;28;20032;-65
2021/12/20 04:15:58;;;;;;;13.50;2.10;;;8.70;99.90;;;;;;5076864;28;20046;-65
2021/12/20 04:18:28;;;;;;;11.35;2.22;;;8.60;99.90;;;;;;5076670;28;20388;-65
2021/12/20 04:20:54;;;;;;;17.15;2.42;;;8.50;99.90;;;;;;5076944;28;20035;-64
2021/12/20 04:23:20;;;;;;;10.73;1.90;;;8.60;99.90;;;;;;5076815;28;20100;-65
2021/12/20 04:25:46;;;;;;;12.65;2.15;;;8.60;99.90;;;;;;5076578;28;20384;-65
2021/12/20 04:28:12;;;;;;;19.83;2.13;;;8.60;99.90;;;;;;5075874;28;20059;-65
2021/12/20 04:30:38;;;;;;;11.77;2.38;;;8.70;99.90;;;;;;5076574;28;20032;-65
2021/12/20 04:33:04;;;;;;;11.45;2.10;;;8.70;99.90;;;;;;5076878;28;20024;-65
2021/12/20 04:35:30;;;;;;;18.40;1.92;;;8.70;99.90;;;;;;5076301;28;20063;-65
2021/12/20 04:37:58;;;;;;;11.90;2.00;;;8.60;99.90;;;;;;5075765;28;20025;-65
2021/12/20 04:40:24;;;;;;;11.88;2.22;;;8.60;99.90;;;;;;5076444;28;20032;-65
2021/12/20 04:42:56;;;;;;;19.02;3.20;;;8.60;99.90;;;;;;5075619;28;20078;-65
2021/12/20 04:45:23;;;;;;;15.18;2.15;;;8.60;99.90;;;;;;5078335;28;20033;-65
2021/12/20 04:47:49;;;;;;;13.13;1.80;;;8.50;99.90;;;;;;5080227;28;20098;-64
2021/12/20 04:50:15;;;;;;;18.40;2.83;;;8.60;99.90;;;;;;5080888;28;20412;-65
2021/12/20 04:52:41;;;;;;;16.20;2.88;;;8.70;99.90;;;;;;5062864;28;20483;-65
2021/12/20 04:55:10;;;;;;;19.05;2.15;;;8.60;99.90;;;;;;5079954;28;20131;-65
2021/12/20 04:57:36;;;;;;;9.70;2.10;;;8.60;99.90;;;;;;5079923;28;20035;-65
2021/12/20 05:00:06;;;;;;;21.75;3.13;;;8.60;99.90;;;;;;5079288;28;20033;-65
2021/12/20 05:02:32;;;;;;;15.88;2.45;;;8.50;99.90;;;;;;5079891;28;20071;-65
2021/12/20 05:04:57;;;;;;;17.75;2.70;;;8.40;99.90;;;;;;5080394;28;20388;-65
2021/12/20 05:07:26;;;;;;;10.85;2.30;;;8.50;99.90;;;;;;5079149;28;20029;-65
2021/12/20 05:09:57;;;;;;;10.85;1.92;;;8.50;99.90;;;;;;5080311;28;20319;-65
2021/12/20 05:12:23;;;;;;;14.45;2.58;;;8.50;99.90;;;;;;5080292;28;20106;-65
2021/12/20 05:14:49;;;;;;;21.77;2.78;;;8.50;99.90;;;;;;5079686;28;20037;-65
2021/12/20 05:17:15;;;;;;;13.00;2.33;;;8.50;99.90;;;;;;5080051;28;20090;-64
2021/12/20 05:19:44;;;;;;;12.85;2.35;;;8.50;99.90;;;;;;5079635;28;20048;-65
2021/12/20 05:22:11;;;;;;;14.02;2.08;;;8.50;99.90;;;;;;5080073;28;20036;-65
2021/12/20 05:24:38;;;;;;;15.55;2.38;;;8.50;99.90;;;;;;5079585;28;20032;-65
2021/12/20 05:27:04;;;;;;;8.07;1.92;;;8.60;99.90;;;;;;5079459;28;20068;-65
2021/12/20 05:29:31;;;;;;;13.18;2.35;;;8.60;99.90;;;;;;5078700;28;20070;-65
2021/12/20 05:31:58;;;;;;;12.23;2.03;;;8.60;99.90;;;;;;5079364;28;20036;-65
2021/12/20 05:34:24;;;;;;;16.40;2.15;;;8.60;99.90;;;;;;5079163;28;20053;-65
2021/12/20 05:36:50;;;;;;;16.05;2.20;;;8.60;99.90;;;;;;5079236;28;20075;-66
2021/12/20 05:39:16;;;;;;;15.80;2.80;;;8.60;99.90;;;;;;5079345;28;20048;-65
2021/12/20 05:41:42;;;;;;;11.55;1.95;;;8.60;99.90;;;;;;5079270;28;20044;-65
2021/12/20 05:44:07;;;;;;;13.85;2.40;;;8.60;99.90;;;;;;5079243;28;20357;-65
2021/12/20 05:46:33;;;;;;;15.82;2.85;;;8.50;99.90;;;;;;5079017;28;20039;-65
2021/12/20 05:48:59;;;;;;;21.17;3.05;;;8.50;99.90;;;;;;5079113;28;20067;-65
2021/12/20 05:51:25;;;;;;;17.63;2.28;;;8.60;99.90;;;;;;5079046;28;20060;-64
2021/12/20 05:53:51;;;;;;;13.50;2.30;;;8.50;99.90;;;;;;5078296;28;20074;-64
2021/12/20 05:56:17;;;;;;;11.40;2.28;;;8.60;99.90;;;;;;5078062;28;20036;-65
2021/12/20 05:58:42;;;;;;;17.08;2.40;;;8.60;99.90;;;;;;5078872;28;20021;-65
2021/12/20 06:01:08;;;;;;;11.90;2.13;;;8.50;99.90;;;;;;5079056;28;20028;-65
2021/12/20 06:03:34;;;;;;;14.10;1.88;;;8.60;99.90;;;;;;5078787;28;20035;-65
2021/12/20 06:06:00;;;;;;;15.68;2.35;;;8.60;99.90;;;;;;5078683;28;20051;-65
2021/12/20 06:08:26;;;;;;;18.30;2.88;;;8.60;99.90;;;;;;5078132;28;20086;-65
2021/12/20 06:10:52;;;;;;;13.07;2.10;;;8.60;99.90;;;;;;5078173;28;20033;-65
2021/12/20 06:13:17;;;;;;;16.05;3.17;;;8.60;99.90;;;;;;5078616;28;20035;-65
2021/12/20 06:15:43;;;;;;;16.20;2.50;;;8.60;99.90;;;;;;5078393;28;20103;-65
2021/12/20 06:18:09;;;;;;;13.68;2.72;;;8.60;99.90;;;;;;5078517;28;20068;-65
2021/12/20 06:20:35;;;;;;;14.13;2.28;;;8.70;99.90;;;;;;5077594;28;20463;-64
2021/12/20 06:23:01;;;;;;;16.15;3.22;;;8.70;99.90;;;;;;5078708;28;20028;-65
2021/12/20 06:25:27;;;;;;;12.85;2.35;;;8.70;99.90;;;;;;5078286;28;20300;-65
2021/12/20 06:27:53;;;;;;;24.35;2.50;;;8.60;99.90;;;;;;5078535;28;20040;-65
2021/12/20 06:30:19;;;;;;;14.10;2.20;;;8.50;99.90;;;;;;5077356;28;20106;-66
2021/12/20 06:32:46;;;;;;;14.95;2.38;;;8.50;99.90;;;;;;5077502;28;20032;-66
2021/12/20 06:35:13;;;;;;;13.60;2.03;;;8.60;99.90;;;;;;5077880;28;20144;-66
2021/12/20 06:37:43;;;;;;;20.67;3.20;;;8.50;99.90;;;;;;5077424;28;20041;-67
2021/12/20 06:40:10;;;;;;;15.95;2.67;;;8.50;99.90;;;;;;5078353;28;20330;-65
2021/12/20 06:42:37;;;;;;;11.63;2.60;;;8.60;99.90;;;;;;5078294;28;20043;-66
2021/12/20 06:45:06;;;;;;;16.70;2.42;;;8.40;99.90;;;;;;5077895;28;20047;-67
2021/12/20 06:47:33;;;;;;;19.75;2.40;;;8.20;99.90;;;;;;5077066;28;20028;-65
2021/12/20 06:49:59;;;;;;;17.95;2.40;;;8.10;99.90;;;;;;5077168;28;20093;-66
2021/12/20 06:52:25;;;;;;;16.17;2.42;;;8.10;99.90;;;;;;5077108;28;20103;-66
2021/12/20 06:54:52;;;;;;;14.18;2.38;;;8.10;99.90;;;;;;5077685;28;20041;-65
2021/12/20 06:57:20;;;;;;;17.27;2.40;;;8.20;99.90;;;;;;5077481;28;20056;-65
2021/12/20 06:59:46;;;;;;;16.83;2.60;;;8.10;99.90;;;;;;5077062;28;20044;-65
2021/12/20 07:02:11;;;;;;;16.10;3.10;;;8.00;99.90;;;;;;5077576;28;20040;-65
2021/12/20 07:04:37;;;;;;;11.07;2.35;;;8.10;99.90;;;;;;5077627;28;20028;-65
2021/12/20 07:07:03;;;;;;;11.90;2.10;;;8.20;99.90;;;;;;5076844;28;20032;-65
2021/12/20 07:09:29;;;;;;;18.13;2.13;;;8.40;99.90;;;;;;5078244;28;20111;-65
2021/12/20 07:11:55;;;;;;;20.02;2.60;;;8.40;99.90;;;;;;5077484;28;20032;-65
2021/12/20 07:14:26;;;;;;;21.25;2.15;;;8.30;99.90;;;;;;5077321;28;20040;-65
2021/12/20 07:16:52;;;;;;;17.33;2.47;;;8.40;99.90;;;;;;5077459;28;20043;-65
2021/12/20 07:19:18;;;;;;;16.48;2.70;;;8.30;99.90;;;;;;5077366;28;20407;-65
2021/12/20 07:21:44;;;;;;;15.70;2.75;;;8.30;99.90;;;;;;5077337;28;20032;-66
2021/12/20 07:24:10;;;;;;;16.55;2.78;;;8.30;99.90;;;;;;5077269;28;20102;-65
2021/12/20 07:26:36;;;;;;;14.20;2.83;;;8.40;99.90;;;;;;5077438;28;20036;-66
2021/12/20 07:29:02;;;;;;;16.83;2.65;;;8.40;99.90;;;;;;5059871;28;20039;-65
2021/12/20 07:31:27;;;;;;;15.55;2.53;;;8.30;99.90;;;;;;5077245;28;20035;-65
2021/12/20 07:33:54;;;;;;;15.32;2.58;;;8.40;99.90;;;;;;5077029;28;20112;-64
2021/12/20 07:36:22;;;;;;;15.25;2.78;;;8.30;99.90;;;;;;5077154;28;20032;-66
2021/12/20 07:38:50;;;;;;;16.77;2.80;;;8.20;99.90;;;;;;5077370;28;20044;-65
2021/12/20 07:41:20;;;;;;;14.68;2.53;;;8.30;99.90;;;;;;5076402;28;20119;-66
2021/12/20 07:43:48;;;;;;;12.52;2.47;;;8.30;99.90;;;;;;5077083;28;20028;-65
2021/12/20 07:46:15;;;;;;;17.00;2.80;;;8.30;99.90;;;;;;5077016;28;20345;-66
2021/12/20 07:48:41;;;;;;;14.13;2.40;;;8.30;99.90;;;;;;5076463;28;20033;-66
2021/12/20 07:51:07;;;;;;;18.40;3.05;;;8.20;99.90;;;;;;5076968;28;20370;-65
2021/12/20 07:53:32;;;;;;;12.20;2.70;;;8.30;99.90;;;;;;5077135;28;20036;-66
2021/12/20 07:55:58;;;;;;;11.18;2.35;;;8.30;99.90;;;;;;5076750;28;20045;-65
2021/12/20 07:58:24;;;;;;;14.02;2.72;;;8.20;99.90;;;;;;5076739;28;20021;-65
2021/12/20 08:00:50;;;;;;;18.15;2.83;;;8.30;99.90;;;;;;5075826;28;20032;-66
2021/12/20 08:03:17;;;;;;;11.80;2.40;;;8.30;99.90;;;;;;5075553;28;20032;-67
2021/12/20 08:05:43;;;;;;;12.48;2.80;;;8.40;99.90;;;;;;5075564;28;20103;-66
2021/12/20 08:08:10;;;;;;;9.75;2.53;;;8.50;99.90;;;;;;5076121;28;20166;-65
2021/12/20 08:10:36;;;;;;;15.13;2.92;;;8.50;99.90;;;;;;5076415;28;20119;-65
2021/12/20 08:13:03;;;;;;;13.70;2.53;;;8.50;99.90;;;;;;5076309;28;20113;-66
2021/12/20 08:15:29;;;;;;;16.80;3.25;;;8.50;99.90;;;;;;5076336;28;20027;-64
2021/12/20 08:17:56;;;;;;;15.15;2.65;;;8.50;99.90;;;;;;5076427;28;20028;-65
2021/12/20 08:20:23;;;;;;;15.38;2.88;;;8.50;99.90;;;;;;5078286;28;20094;-64
2021/12/20 08:22:49;;;;;;;15.55;2.50;;;8.50;99.90;;;;;;5079639;28;20032;-65
2021/12/20 08:25:16;;;;;;;36.92;3.33;;;8.60;99.90;;;;;;5079672;28;20099;-65
2021/12/20 08:27:43;;;;;;;17.27;2.88;;;8.60;99.90;;;;;;5080350;28;20407;-64
2021/12/20 08:30:09;;;;;;;14.35;2.28;;;8.60;99.90;;;;;;5080298;28;20273;-65
2021/12/20 08:32:38;;;;;;;10.93;2.35;;;8.60;99.90;;;;;;5080212;28;20087;-65
2021/12/20 08:35:06;;;;;;;16.33;2.80;;;8.60;99.90;;;;;;5079926;28;20036;-67
2021/12/20 08:37:32;;;;;;;14.40;2.33;;;8.70;99.90;;;;;;5080219;28;20032;-65
2021/12/20 08:39:58;;;;;;;12.45;2.63;;;8.70;99.90;;;;;;5062747;28;20090;-65
2021/12/20 08:42:24;;;;;;;15.70;2.72;;;8.70;99.90;;;;;;5079984;28;20399;-65
2021/12/20 08:44:50;;;;;;;14.35;2.33;;;8.60;99.90;;;;;;5080106;28;20033;-65
2021/12/20 08:47:17;;;;;;;13.55;2.47;;;8.60;99.90;;;;;;5079484;28;20039;-65
2021/12/20 08:49:43;;;;;;;17.58;3.17;;;8.70;99.90;;;;;;5079482;28;20139;-65
2021/12/20 08:52:10;;;;;;;15.40;2.83;;;8.80;99.90;;;;;;5080144;28;20429;-64
2021/12/20 08:54:36;;;;;;;13.32;2.35;;;8.90;99.90;;;;;;5080094;28;20032;-64
2021/12/20 08:57:03;;;;;;;14.18;2.30;;;9.00;99.90;;;;;;5063240;28;20407;-65
2021/12/20 08:59:28;;;;;;;12.45;2.33;;;8.90;99.90;;;;;;5079986;28;20021;-64
2021/12/20 09:01:54;;;;;;;10.93;1.95;;;9.00;99.90;;;;;;5080434;28;20042;-65
2021/12/20 09:04:21;;;;;;;11.27;2.53;;;9.00;99.90;;;;;;5079985;28;20029;-65
2021/12/20 09:06:49;;;;;;;14.35;2.42;;;9.00;99.90;;;;;;5080177;28;20339;-63
2021/12/20 09:09:15;;;;;;;10.05;2.47;;;9.10;99.90;;;;;;5079098;28;20119;-64
2021/12/20 09:11:42;;;;;;;14.15;2.47;;;9.10;99.90;;;;;;5079812;28;20358;-64
2021/12/20 09:14:08;;;;;;;10.50;2.38;;;9.30;99.90;;;;;;5079136;28;20082;-64
2021/12/20 09:16:34;;;;;;;11.43;2.17;;;9.20;99.90;;;;;;5079606;28;20033;-64
2021/12/20 09:19:00;;;;;;;16.13;2.88;;;9.20;99.90;;;;;;5079778;28;20048;-64
2021/12/20 09:21:26;;;;;;;11.98;2.40;;;9.30;99.90;;;;;;5078870;28;20024;-64
2021/12/20 09:23:53;;;;;;;17.02;2.72;;;9.30;99.90;;;;;;5079666;28;20031;-64
2021/12/20 09:26:20;;;;;;;12.25;2.30;;;9.30;99.90;;;;;;5079492;28;20039;-63
2021/12/20 09:28:46;;;;;;;15.43;2.75;;;9.30;99.90;;;;;;5079358;28;20116;-64
2021/12/20 09:31:12;;;;;;;20.33;2.78;;;9.30;99.90;;;;;;5078269;28;20064;-64
2021/12/20 09:33:38;;;;;;;10.13;2.03;;;9.40;99.90;;;;;;5078336;28;20307;-64
2021/12/20 09:36:04;;;;;;;10.35;2.17;;;9.40;99.90;;;;;;5079249;28;20273;-62
2021/12/20 09:38:31;;;;;;;17.17;2.90;;;9.50;99.90;;;;;;5078747;28;20456;-64
2021/12/20 09:43:43;;;;;;;16.40;2.47;;;9.50;99.90;;;;;;5078446;28;20408;-65
2021/12/20 09:46:09;;;;;;;20.42;2.97;;;9.60;99.90;;;;;;5079590;28;20311;-65
2021/12/20 09:48:36;;;;;;;13.07;2.60;;;9.60;99.90;;;;;;5079075;28;20093;-65
2021/12/20 09:51:04;;;;;;;15.95;2.50;;;9.80;99.90;;;;;;5079047;28;20040;-65
2021/12/20 09:53:30;;;;;;;14.25;3.03;;;9.80;99.90;;;;;;5078235;28;20457;-65
2021/12/20 09:55:58;;;;;;;16.38;2.53;;;9.80;99.90;;;;;;5079140;28;20032;-64
2021/12/20 09:58:26;;;;;;;15.25;2.55;;;9.80;99.90;;;;;;5078841;28;20126;-65
2021/12/20 10:00:52;;;;;;;18.95;3.40;;;9.90;99.90;;;;;;5078862;28;20114;-65
2021/12/20 10:03:23;;;;;;;64.95;18.77;;;9.90;99.90;;;;;;5079037;28;20036;-65
2021/12/20 10:05:54;;;;;;;98.35;24.80;;;9.90;99.90;;;;;;5078706;28;20048;-64
2021/12/20 10:08:26;;;;;;;20.33;4.05;;;9.80;99.90;;;;;;5078734;28;20111;-64
2021/12/20 10:10:53;;;;;;;17.50;3.55;;;9.80;99.90;;;;;;5078768;28;20396;-64
2021/12/20 10:13:24;;;;;;;14.38;2.45;;;9.80;99.90;;;;;;5078627;28;20036;-64
2021/12/20 10:15:50;;;;;;;54.42;17.23;;;10.00;99.90;;;;;;5078550;28;20025;-63
2021/12/20 10:18:16;;;;;;;30.70;5.63;;;9.90;99.90;;;;;;5077772;28;20063;-64
2021/12/20 10:20:51;;;;;;;27.75;5.82;;;9.90;99.90;;;;;;5078497;28;20292;-65
2021/12/20 10:23:23;;;;;;;21.90;2.63;;;10.00;99.90;;;;;;5078457;28;20029;-64
2021/12/20 10:25:55;;;;;;;13.27;2.60;;;10.00;99.90;;;;;;5078257;28;20396;-65
2021/12/20 10:28:23;;;;;;;16.38;2.88;;;10.10;99.90;;;;;;5078350;28;20041;-65
2021/12/20 10:30:58;;;;;;;13.82;2.85;;;10.10;99.90;;;;;;5078907;28;20094;-65
2021/12/20 10:33:25;;;;;;;14.68;3.35;;;10.20;99.90;;;;;;5078116;28;20354;-64
2021/12/20 10:35:56;;;;;;;94.53;23.27;;;10.30;99.90;;;;;;5078152;28;20067;-64
2021/12/20 10:38:38;;;;;;;68.75;17.52;;;10.10;99.90;;;;;;5078087;28;20020;-65
2021/12/20 10:41:22;;;;;;;12.83;2.37;;;10.10;99.90;;;;;;5078155;28;20037;-64
2021/12/20 10:43:57;;;;;;;22.55;3.72;;;10.00;99.90;;;;;;5077717;28;20048;-64
2021/12/20 10:46:32;;;;;;;19.40;2.75;;;10.00;99.90;;;;;;5078464;28;20357;-65
2021/12/20 10:49:05;;;;;;;12.70;3.20;;;10.20;99.90;;;;;;5077991;28;20047;-64
2021/12/20 10:51:39;;;;;;;16.77;3.33;;;10.20;99.90;;;;;;5077862;28;20111;-64
2021/12/20 10:54:10;;;;;;;19.25;3.10;;;10.30;99.90;;;;;;5076991;28;20033;-64
2021/12/20 10:56:38;;;;;;;14.77;2.67;;;10.40;99.90;;;;;;5077705;28;20277;-64
2021/12/20 10:59:10;;;;;;;13.02;2.60;;;10.40;99.90;;;;;;5076924;28;20020;-64
2021/12/20 11:04:23;;;;;;;18.02;3.30;;;10.50;99.90;;;;;;5077611;28;20111;-65
2021/12/20 11:09:24;;;;;;;12.43;2.22;;;10.20;99.90;;;;;;5077669;28;20037;-65
2021/12/20 11:11:52;;;;;;;15.02;2.53;;;10.10;99.90;;;;;;5076727;28;20036;-64
2021/12/20 11:14:22;;;;;;;12.82;2.20;;;10.20;99.90;;;;;;5077437;28;20463;-65
2021/12/20 11:16:51;;;;;;;10.55;2.33;;;10.10;99.90;;;;;;5077402;28;20032;-63
2021/12/20 11:19:21;;;;;;;18.88;2.90;;;10.10;99.90;;;;;;5076975;28;20116;-63
2021/12/20 11:22:10;;;;;;;12.77;3.25;;;10.20;99.90;;;;;;5076768;28;20036;-63
2021/12/20 11:25:03;;;;;;;13.07;2.47;;;10.30;99.90;;;;;;5076384;28;20127;-65
2021/12/20 11:27:42;;;;;;;16.02;2.65;;;10.30;99.90;;;;;;5070244;28;20080;-64
2021/12/20 11:30:17;;;;;;;29.95;10.23;;;10.30;99.90;;;;;;5076813;28;20295;-65
2021/12/20 11:32:45;;;;;;;17.02;2.83;;;10.20;99.90;;;;;;5077181;28;20047;-63
2021/12/20 11:35:11;;;;;;;11.52;2.38;;;10.20;99.90;;;;;;5076938;28;20052;-65
2021/12/20 11:37:37;;;;;;;16.60;2.08;;;10.00;99.90;;;;;;5077443;28;20032;-64
2021/12/20 11:40:06;;;;;;;11.20;2.10;;;9.90;99.90;;;;;;5077025;28;20029;-64
2021/12/20 11:42:33;;;;;;;15.98;2.20;;;9.80;99.90;;;;;;5077076;28;20016;-64
2021/12/20 11:45:01;;;;;;;10.77;1.65;;;9.90;99.90;;;;;;5076169;28;20122;-63
2021/12/20 11:47:31;;;;;;;15.55;2.30;;;10.00;99.90;;;;;;5077503;28;20332;-65
2021/12/20 11:50:05;;;;;;;13.75;2.20;;;9.90;99.90;;;;;;5059214;28;20024;-63
2021/12/20 11:52:34;;;;;;;9.93;2.33;;;9.70;99.90;;;;;;5076964;28;20299;-64
2021/12/20 11:55:20;;;;;;;13.05;2.78;;;9.70;99.90;;;;;;5076242;28;20045;-64
2021/12/20 11:57:54;;;;;;;9.48;1.83;;;10.00;99.90;;;;;;5076066;28;20123;-64
2021/12/20 12:00:23;;;;;;;9.95;2.10;;;10.00;99.90;;;;;;5077342;28;20272;-64
2021/12/20 12:02:53;;;;;;;12.40;1.98;;;10.10;99.90;;;;;;5077101;28;20433;-63
2021/12/20 12:05:32;;;;;;;10.77;1.77;;;10.20;99.90;;;;;;5076797;28;20039;-62
2021/12/20 12:08:26;;;;;;;8.45;1.52;;;9.90;99.90;;;;;;5076925;28;20039;-62
2021/12/20 12:10:57;;;;;;;7.68;1.73;;;9.80;99.90;;;;;;5076630;28;20407;-62
2021/12/20 12:13:26;;;;;;;10.50;1.77;;;9.90;99.90;;;;;;5076560;28;20032;-62
2021/12/20 12:16:03;;;;;;;6.68;1.55;;;10.00;99.90;;;;;;5075783;28;20024;-62
2021/12/20 12:18:50;;;;;;;8.52;1.63;;;10.00;99.90;;;;;;5076076;28;20032;-62
2021/12/20 12:21:32;;;;;;;12.15;1.92;;;9.80;99.90;;;;;;5076603;28;20024;-62
2021/12/20 12:23:59;;;;;;;17.00;1.80;;;9.80;99.90;;;;;;5076492;28;20056;-63
2021/12/20 12:26:30;;;;;;;8.10;1.73;;;9.80;99.90;;;;;;5075767;28;20021;-63
2021/12/20 12:28:57;;;;;;;12.05;1.80;;;9.90;99.90;;;;;;5076569;28;20112;-62
2021/12/20 12:31:24;;;;;;;8.73;1.75;;;9.70;99.90;;;;;;5076468;28;20082;-62
2021/12/20 12:34:06;;;;;;;13.23;2.28;;;9.70;99.90;;;;;;5076271;28;20049;-61
2021/12/20 12:36:39;;;;;;;11.57;2.28;;;9.70;99.90;;;;;;5076885;28;20032;-63
2021/12/20 12:39:28;;;;;;;10.80;2.55;;;9.70;99.90;;;;;;5076436;28;20035;-63
2021/12/20 12:42:00;;;;;;;8.63;1.98;;;9.70;99.90;;;;;;5075968;28;20051;-63
2021/12/20 12:44:32;;;;;;;12.48;2.13;;;9.80;99.90;;;;;;5076392;28;20032;-63
2021/12/20 12:47:04;;;;;;;13.52;2.20;;;9.80;99.90;;;;;;5076336;28;20036;-61
2021/12/20 12:49:42;;;;;;;13.10;2.33;;;9.60;99.90;;;;;;5076327;28;20423;-64
2021/12/20 12:52:16;;;;;;;16.35;2.67;;;9.50;99.90;;;;;;5076264;28;20029;-62
2021/12/20 12:54:43;;;;;;;10.50;2.35;;;9.50;99.90;;;;;;5076082;28;20029;-62
2021/12/20 12:57:12;;;;;;;12.25;2.08;;;9.50;99.90;;;;;;5076533;28;20025;-62
2021/12/20 12:59:47;;;;;;;13.80;2.15;;;9.50;99.90;;;;;;5076128;28;20071;-62
2021/12/20 13:02:32;;;;;;;11.65;2.42;;;9.50;99.90;;;;;;5075607;28;20032;-62
2021/12/20 13:05:06;;;;;;;13.13;2.72;;;9.60;99.90;;;;;;5076164;28;20031;-62
2021/12/20 13:07:40;;;;;;;10.98;1.60;;;9.40;99.90;;;;;;5079428;28;20035;-63
2021/12/20 13:10:19;;;;;;;10.35;1.73;;;9.30;99.90;;;;;;5079691;28;20431;-62
2021/12/20 13:17:54;;;;;;;13.07;1.85;;;9.00;99.90;;;;;;5079972;28;20088;-62